createdAt,value
2019-03-25T00:00:06.193Z,0.00
2019-03-25T00:01:06.184Z,0.00
2019-03-25T00:02:06.168Z,0.00
2019-03-25T00:03:06.155Z,0.00
2019-03-25T00:04:06.144Z,0.00
2019-03-25T00:05:06.131Z,0.00
2019-03-25T00:06:06.118Z,0.00
2019-03-25T00:07:06.106Z,0.00
2019-03-25T00:08:06.095Z,0.00
2019-03-25T00:09:06.080Z,0.00
2019-03-25T00:10:06.068Z,0.00
2019-03-25T00:11:06.056Z,0.00
2019-03-25T00:12:06.044Z,0.00
2019-03-25T00:13:06.030Z,0.00
2019-03-25T00:14:06.020Z,0.00
2019-03-25T00:15:06.006Z,0.00
2019-03-25T00:16:05.996Z,0.00
2019-03-25T00:17:06.033Z,0.00
2019-03-25T00:18:05.967Z,0.00
2019-03-25T00:19:05.955Z,0.00
2019-03-25T00:20:05.945Z,0.00
2019-03-25T00:21:05.928Z,0.00
2019-03-25T00:22:05.915Z,0.00
2019-03-25T00:23:05.903Z,0.00
2019-03-25T00:24:05.891Z,0.00
2019-03-25T00:25:05.880Z,0.00
2019-03-25T00:26:05.864Z,0.00
2019-03-25T00:27:05.853Z,0.00
2019-03-25T00:28:05.842Z,0.00
2019-03-25T00:29:05.826Z,0.00
2019-03-25T00:30:05.812Z,0.00
2019-03-25T00:31:05.800Z,0.00
2019-03-25T00:32:05.787Z,0.00
2019-03-25T00:33:05.777Z,0.00
2019-03-25T00:34:05.760Z,0.00
2019-03-25T00:35:05.747Z,0.00
2019-03-25T00:36:05.734Z,0.00
2019-03-25T00:37:05.721Z,0.00
2019-03-25T00:38:05.708Z,0.00
2019-03-25T00:39:05.695Z,0.00
2019-03-25T00:40:05.684Z,0.00
2019-03-25T00:41:05.671Z,0.00
2019-03-25T00:42:05.656Z,0.00
2019-03-25T00:43:05.643Z,0.00
2019-03-25T00:44:05.631Z,0.00
2019-03-25T00:45:05.617Z,0.00
2019-03-25T00:46:05.604Z,0.00
2019-03-25T00:47:05.642Z,0.00
2019-03-25T00:48:05.581Z,0.00
2019-03-25T00:49:05.566Z,0.00
2019-03-25T00:50:05.553Z,0.00
2019-03-25T00:51:05.546Z,0.00
2019-03-25T00:52:05.528Z,0.00
2019-03-25T00:53:05.514Z,0.00
2019-03-25T00:54:05.501Z,0.00
2019-03-25T00:55:05.491Z,0.00
2019-03-25T00:56:05.476Z,0.00
2019-03-25T00:57:05.461Z,0.00
2019-03-25T00:58:05.450Z,0.00
2019-03-25T00:59:05.436Z,0.00
2019-03-25T01:00:05.423Z,0.00
2019-03-25T01:01:05.410Z,0.00
2019-03-25T01:02:05.398Z,0.00
2019-03-25T01:03:05.383Z,0.00
2019-03-25T01:04:05.370Z,0.00
2019-03-25T01:05:05.356Z,0.00
2019-03-25T01:06:05.349Z,0.00
2019-03-25T01:07:05.332Z,0.00
2019-03-25T01:08:05.318Z,0.00
2019-03-25T01:09:05.302Z,0.00
2019-03-25T01:10:05.289Z,0.00
2019-03-25T01:11:05.277Z,0.00
2019-03-25T01:12:05.263Z,0.00
2019-03-25T01:13:05.249Z,0.00
2019-03-25T01:14:05.237Z,0.00
2019-03-25T01:15:05.224Z,0.00
2019-03-25T01:16:05.211Z,0.00
2019-03-25T01:17:05.198Z,0.00
2019-03-25T01:18:16.136Z,0.00
2019-03-25T01:19:05.171Z,0.00
2019-03-25T01:20:05.157Z,0.00
2019-03-25T01:21:05.146Z,0.00
2019-03-25T01:22:05.131Z,0.00
2019-03-25T01:23:05.118Z,0.00
2019-03-25T01:24:05.105Z,0.00
2019-03-25T01:25:05.100Z,0.00
2019-03-25T01:26:05.083Z,0.00
2019-03-25T01:27:05.065Z,0.00
2019-03-25T01:28:05.052Z,0.00
2019-03-25T01:29:05.040Z,0.00
2019-03-25T01:30:05.025Z,0.00
2019-03-25T01:31:05.012Z,0.00
2019-03-25T01:32:04.999Z,0.00
2019-03-25T01:33:04.985Z,0.00
2019-03-25T01:34:04.973Z,0.00
2019-03-25T01:35:04.960Z,0.00
2019-03-25T01:36:04.946Z,0.00
2019-03-25T01:37:04.931Z,0.00
2019-03-25T01:38:04.918Z,0.00
2019-03-25T01:39:04.907Z,0.00
2019-03-25T01:40:04.892Z,0.00
2019-03-25T01:41:04.877Z,0.00
2019-03-25T01:42:04.868Z,0.00
2019-03-25T01:43:04.852Z,0.00
2019-03-25T01:44:04.839Z,0.00
2019-03-25T01:45:04.825Z,0.00
2019-03-25T01:46:04.812Z,0.00
2019-03-25T01:47:04.798Z,0.00
2019-03-25T01:48:04.785Z,0.00
2019-03-25T01:49:04.771Z,0.00
2019-03-25T01:50:04.758Z,0.00
2019-03-25T01:51:04.745Z,0.00
2019-03-25T01:52:04.732Z,0.00
2019-03-25T01:53:04.719Z,0.00
2019-03-25T01:54:04.706Z,0.00
2019-03-25T01:55:13.021Z,0.00
2019-03-25T01:56:04.680Z,0.00
2019-03-25T01:57:04.666Z,0.00
2019-03-25T01:58:04.657Z,0.00
2019-03-25T01:59:04.642Z,0.00
2019-03-25T02:00:04.628Z,0.00
2019-03-25T02:01:04.614Z,0.00
2019-03-25T02:02:04.601Z,0.00
2019-03-25T02:03:04.589Z,0.00
2019-03-25T02:04:04.576Z,0.00
2019-03-25T02:05:04.565Z,0.00
2019-03-25T02:06:04.549Z,0.00
2019-03-25T02:07:04.536Z,0.00
2019-03-25T02:08:04.524Z,0.00
2019-03-25T02:09:04.510Z,0.00
2019-03-25T02:10:04.498Z,0.00
2019-03-25T02:11:04.484Z,0.00
2019-03-25T02:12:04.472Z,0.00
2019-03-25T02:13:04.458Z,0.00
2019-03-25T02:14:04.447Z,0.00
2019-03-25T02:15:04.433Z,0.00
2019-03-25T02:16:04.421Z,0.00
2019-03-25T02:17:04.407Z,0.00
2019-03-25T02:18:04.401Z,0.00
2019-03-25T02:19:04.381Z,0.00
2019-03-25T02:20:04.373Z,0.00
2019-03-25T02:21:04.355Z,0.00
2019-03-25T02:22:04.347Z,0.00
2019-03-25T02:23:04.646Z,0.00
2019-03-25T02:24:04.319Z,0.00
2019-03-25T02:25:04.304Z,0.00
2019-03-25T02:26:04.292Z,0.00
2019-03-25T02:27:04.279Z,0.00
2019-03-25T02:28:04.274Z,0.00
2019-03-25T02:29:04.253Z,0.00
2019-03-25T02:30:04.246Z,0.00
2019-03-25T02:31:04.230Z,0.00
2019-03-25T02:32:04.229Z,0.00
2019-03-25T02:33:04.205Z,0.00
2019-03-25T02:34:04.233Z,0.00
2019-03-25T02:35:04.183Z,0.00
2019-03-25T02:36:04.165Z,0.00
2019-03-25T02:37:04.154Z,0.00
2019-03-25T02:38:04.144Z,0.00
2019-03-25T02:39:04.128Z,0.00
2019-03-25T02:40:04.129Z,0.00
2019-03-25T02:41:04.112Z,0.00
2019-03-25T02:42:04.098Z,0.00
2019-03-25T02:43:04.076Z,0.00
2019-03-25T02:44:04.067Z,0.00
2019-03-25T02:45:04.051Z,0.00
2019-03-25T02:46:04.046Z,0.00
2019-03-25T02:47:04.162Z,0.00
2019-03-25T02:48:04.032Z,0.00
2019-03-25T02:49:04.013Z,0.00
2019-03-25T02:50:03.990Z,0.00
2019-03-25T02:51:03.980Z,0.00
2019-03-25T02:52:03.962Z,0.00
2019-03-25T02:53:03.962Z,0.00
2019-03-25T02:54:03.938Z,0.00
2019-03-25T02:55:03.927Z,0.00
2019-03-25T02:56:03.922Z,0.00
2019-03-25T02:57:03.903Z,0.00
2019-03-25T02:58:03.900Z,0.00
2019-03-25T02:59:03.881Z,0.00
2019-03-25T03:00:03.872Z,0.00
2019-03-25T03:01:03.896Z,0.00
2019-03-25T03:02:03.902Z,0.00
2019-03-25T03:03:03.832Z,0.00
2019-03-25T03:04:03.818Z,0.00
2019-03-25T03:05:03.800Z,0.00
2019-03-25T03:06:03.785Z,0.00
2019-03-25T03:07:03.772Z,0.00
2019-03-25T03:08:03.761Z,0.00
2019-03-25T03:09:03.771Z,0.00
2019-03-25T03:10:03.737Z,0.00
2019-03-25T03:11:03.735Z,0.00
2019-03-25T03:12:03.712Z,0.00
2019-03-25T03:13:03.707Z,0.00
2019-03-25T03:14:03.696Z,0.00
2019-03-25T03:15:03.673Z,0.00
2019-03-25T03:16:03.768Z,0.00
2019-03-25T03:17:03.656Z,0.00
2019-03-25T03:18:03.761Z,0.00
2019-03-25T03:19:03.631Z,0.00
2019-03-25T03:20:03.621Z,0.00
2019-03-25T03:21:03.599Z,0.00
2019-03-25T03:22:03.581Z,0.00
2019-03-25T03:23:03.578Z,0.00
2019-03-25T03:24:03.566Z,0.00
2019-03-25T03:25:03.545Z,0.00
2019-03-25T03:26:03.570Z,0.00
2019-03-25T03:27:03.525Z,0.00
2019-03-25T03:28:03.506Z,0.00
2019-03-25T03:29:03.521Z,0.00
2019-03-25T03:30:03.482Z,0.00
2019-03-25T03:31:03.468Z,0.00
2019-03-25T03:32:03.456Z,0.00
2019-03-25T03:33:03.458Z,0.00
2019-03-25T03:34:03.501Z,0.00
2019-03-25T03:35:03.416Z,0.00
2019-03-25T03:36:03.419Z,0.00
2019-03-25T03:37:03.390Z,0.00
2019-03-25T03:38:03.377Z,0.00
2019-03-25T03:39:03.366Z,0.00
2019-03-25T03:40:03.353Z,0.00
2019-03-25T03:41:03.344Z,0.00
2019-03-25T03:42:03.357Z,0.00
2019-03-25T03:43:03.315Z,0.00
2019-03-25T03:44:03.316Z,0.00
2019-03-25T03:45:03.289Z,0.00
2019-03-25T03:46:03.276Z,0.00
2019-03-25T03:47:03.264Z,0.00
2019-03-25T03:48:03.253Z,0.00
2019-03-25T03:49:03.242Z,0.00
2019-03-25T03:50:03.233Z,0.00
2019-03-25T03:51:03.214Z,0.00
2019-03-25T03:52:03.205Z,0.00
2019-03-25T03:53:03.195Z,0.00
2019-03-25T03:54:03.177Z,0.00
2019-03-25T03:55:03.165Z,0.00
2019-03-25T03:56:12.859Z,0.00
2019-03-25T03:57:03.138Z,0.00
2019-03-25T03:58:03.127Z,0.00
2019-03-25T03:59:03.112Z,0.00
2019-03-25T04:00:03.099Z,0.00
2019-03-25T04:01:03.104Z,0.00
2019-03-25T04:02:03.076Z,0.00
2019-03-25T04:03:03.062Z,0.00
2019-03-25T04:04:03.058Z,0.00
2019-03-25T04:05:03.045Z,0.00
2019-03-25T04:06:03.023Z,0.00
2019-03-25T04:07:03.005Z,0.00
2019-03-25T04:08:02.995Z,0.00
2019-03-25T04:09:02.979Z,0.00
2019-03-25T04:10:02.969Z,0.00
2019-03-25T04:11:02.953Z,0.00
2019-03-25T04:12:02.942Z,0.00
2019-03-25T04:13:02.930Z,0.00
2019-03-25T04:14:02.915Z,0.00
2019-03-25T04:15:02.901Z,0.00
2019-03-25T04:16:02.890Z,0.00
2019-03-25T04:17:02.874Z,0.00
2019-03-25T04:18:02.863Z,0.00
2019-03-25T04:19:02.856Z,0.00
2019-03-25T04:20:02.889Z,0.00
2019-03-25T04:21:02.825Z,0.00
2019-03-25T04:22:02.810Z,0.00
2019-03-25T04:23:02.796Z,0.00
2019-03-25T04:24:02.785Z,0.00
2019-03-25T04:25:02.779Z,0.00
2019-03-25T04:26:02.757Z,0.00
2019-03-25T04:27:02.770Z,0.00
2019-03-25T04:28:02.732Z,0.00
2019-03-25T04:29:02.726Z,0.00
2019-03-25T04:30:02.705Z,0.00
2019-03-25T04:31:02.694Z,0.00
2019-03-25T04:32:06.079Z,0.00
2019-03-25T04:33:02.671Z,0.00
2019-03-25T04:34:02.653Z,0.00
2019-03-25T04:35:02.639Z,0.00
2019-03-25T04:36:02.628Z,0.00
2019-03-25T04:37:02.615Z,0.00
2019-03-25T04:38:02.602Z,0.00
2019-03-25T04:39:02.591Z,0.00
2019-03-25T04:40:02.575Z,0.00
2019-03-25T04:41:02.573Z,0.00
2019-03-25T04:42:02.556Z,0.00
2019-03-25T04:43:02.640Z,0.00
2019-03-25T04:44:02.524Z,0.00
2019-03-25T04:45:02.508Z,0.00
2019-03-25T04:46:02.496Z,0.00
2019-03-25T04:47:02.487Z,0.00
2019-03-25T04:48:02.470Z,0.00
2019-03-25T04:49:02.456Z,0.00
2019-03-25T04:50:02.445Z,0.00
2019-03-25T04:51:02.431Z,0.00
2019-03-25T04:52:02.418Z,0.00
2019-03-25T04:53:02.403Z,0.00
2019-03-25T04:54:02.391Z,0.00
2019-03-25T04:55:02.381Z,0.00
2019-03-25T04:56:02.417Z,0.00
2019-03-25T04:57:02.351Z,0.00
2019-03-25T04:58:02.339Z,0.00
2019-03-25T04:59:02.326Z,0.00
2019-03-25T05:00:02.313Z,0.00
2019-03-25T05:01:02.300Z,0.00
2019-03-25T05:02:02.288Z,0.00
2019-03-25T05:03:02.277Z,0.00
2019-03-25T05:04:02.270Z,0.00
2019-03-25T05:05:02.248Z,0.00
2019-03-25T05:06:02.234Z,0.00
2019-03-25T05:07:02.222Z,0.00
2019-03-25T05:08:02.212Z,0.00
2019-03-25T05:09:02.195Z,0.00
2019-03-25T05:10:02.187Z,0.00
2019-03-25T05:11:03.821Z,0.00
2019-03-25T05:12:02.157Z,0.00
2019-03-25T05:13:02.142Z,0.00
2019-03-25T05:14:02.130Z,0.00
2019-03-25T05:15:02.117Z,0.00
2019-03-25T05:16:02.105Z,0.00
2019-03-25T05:17:02.090Z,0.00
2019-03-25T05:18:02.089Z,0.00
2019-03-25T05:19:02.066Z,0.00
2019-03-25T05:20:02.051Z,0.00
2019-03-25T05:21:02.087Z,0.00
2019-03-25T05:22:02.034Z,5.63
2019-03-25T05:23:02.011Z,5.63
2019-03-25T05:24:01.998Z,5.63
2019-03-25T05:25:01.989Z,5.63
2019-03-25T05:26:01.972Z,5.63
2019-03-25T05:27:01.961Z,5.63
2019-03-25T05:28:01.945Z,5.63
2019-03-25T05:29:01.933Z,11.25
2019-03-25T05:30:01.931Z,11.25
2019-03-25T05:31:01.905Z,11.25
2019-03-25T05:32:01.892Z,16.88
2019-03-25T05:33:01.877Z,16.88
2019-03-25T05:34:01.866Z,16.88
2019-03-25T05:35:01.864Z,16.88
2019-03-25T05:36:01.838Z,16.88
2019-03-25T05:37:01.827Z,22.50
2019-03-25T05:38:01.810Z,22.50
2019-03-25T05:39:01.819Z,22.50
2019-03-25T05:40:01.786Z,28.13
2019-03-25T05:41:01.770Z,28.13
2019-03-25T05:42:01.757Z,28.13
2019-03-25T05:43:01.745Z,33.75
2019-03-25T05:44:01.731Z,33.75
2019-03-25T05:45:01.717Z,39.38
2019-03-25T05:46:01.706Z,39.38
2019-03-25T05:47:01.690Z,45.00
2019-03-25T05:48:01.677Z,50.63
2019-03-25T05:49:01.662Z,56.25
2019-03-25T05:50:01.673Z,56.25
2019-03-25T05:51:01.642Z,56.25
2019-03-25T05:52:01.626Z,56.25
2019-03-25T05:53:01.611Z,50.63
2019-03-25T05:54:01.595Z,56.25
2019-03-25T05:55:01.585Z,56.25
2019-03-25T05:56:01.570Z,56.25
2019-03-25T05:57:02.619Z,67.50
2019-03-25T05:58:01.543Z,67.50
2019-03-25T05:59:01.532Z,78.75
2019-03-25T06:00:01.516Z,67.50
2019-03-25T06:01:01.501Z,73.13
2019-03-25T06:02:01.488Z,73.13
2019-03-25T06:03:01.476Z,67.50
2019-03-25T06:04:01.462Z,67.50
2019-03-25T06:05:01.683Z,73.13
2019-03-25T06:06:01.440Z,73.13
2019-03-25T06:07:01.425Z,73.13
2019-03-25T06:08:01.411Z,78.75
2019-03-25T06:09:01.395Z,84.38
2019-03-25T06:10:01.382Z,90.00
2019-03-25T06:11:01.368Z,90.00
2019-03-25T06:12:01.356Z,95.63
2019-03-25T06:13:01.343Z,101.25
2019-03-25T06:14:01.336Z,106.88
2019-03-25T06:15:01.323Z,106.88
2019-03-25T06:16:01.303Z,106.88
2019-03-25T06:17:01.291Z,106.88
2019-03-25T06:18:01.274Z,112.50
2019-03-25T06:19:01.263Z,112.50
2019-03-25T06:20:01.248Z,118.13
2019-03-25T06:21:01.234Z,118.13
2019-03-25T06:22:01.222Z,123.75
2019-03-25T06:23:01.208Z,123.75
2019-03-25T06:24:01.196Z,129.38
2019-03-25T06:25:01.983Z,129.38
2019-03-25T06:26:01.178Z,135.00
2019-03-25T06:27:01.155Z,135.00
2019-03-25T06:28:01.169Z,140.63
2019-03-25T06:29:01.928Z,135.00
2019-03-25T06:30:01.116Z,140.63
2019-03-25T06:31:01.103Z,146.25
2019-03-25T06:32:01.089Z,151.88
2019-03-25T06:33:12.023Z,157.50
2019-03-25T06:34:01.062Z,163.13
2019-03-25T06:35:01.055Z,168.75
2019-03-25T06:36:01.036Z,168.75
2019-03-25T06:37:01.023Z,196.88
2019-03-25T06:38:01.010Z,196.88
2019-03-25T06:39:00.997Z,236.25
2019-03-25T06:40:00.982Z,230.63
2019-03-25T06:41:00.972Z,208.13
2019-03-25T06:42:00.956Z,225.00
2019-03-25T06:43:00.946Z,180.00
2019-03-25T06:44:01.181Z,168.75
2019-03-25T06:45:00.917Z,168.75
2019-03-25T06:46:00.907Z,185.63
2019-03-25T06:47:00.897Z,185.63
2019-03-25T06:48:00.892Z,185.63
2019-03-25T06:49:00.877Z,185.63
2019-03-25T06:50:00.861Z,191.25
2019-03-25T06:51:00.851Z,208.13
2019-03-25T06:52:00.840Z,191.25
2019-03-25T06:53:00.814Z,196.88
2019-03-25T06:54:00.801Z,208.13
2019-03-25T06:55:00.791Z,208.13
2019-03-25T06:56:00.776Z,219.38
2019-03-25T06:57:00.763Z,219.38
2019-03-25T06:58:00.750Z,225.00
2019-03-25T06:59:00.738Z,230.63
2019-03-25T07:00:00.749Z,236.25
2019-03-25T07:01:00.718Z,270.00
2019-03-25T07:02:00.699Z,247.50
2019-03-25T07:03:00.687Z,382.50
2019-03-25T07:04:00.678Z,376.88
2019-03-25T07:05:00.661Z,337.50
2019-03-25T07:06:00.650Z,410.63
2019-03-25T07:07:00.639Z,399.38
2019-03-25T07:08:00.625Z,225.00
2019-03-25T07:09:00.612Z,168.75
2019-03-25T07:10:00.606Z,151.88
2019-03-25T07:11:00.592Z,157.50
2019-03-25T07:12:00.576Z,225.00
2019-03-25T07:13:00.565Z,326.25
2019-03-25T07:14:00.556Z,360.00
2019-03-25T07:15:00.539Z,343.13
2019-03-25T07:16:00.528Z,264.38
2019-03-25T07:17:00.515Z,337.50
2019-03-25T07:18:00.502Z,421.88
2019-03-25T07:19:00.490Z,382.50
2019-03-25T07:20:00.481Z,399.38
2019-03-25T07:21:00.467Z,376.88
2019-03-25T07:22:00.454Z,281.25
2019-03-25T07:23:00.443Z,309.38
2019-03-25T07:24:00.434Z,371.25
2019-03-25T07:25:00.418Z,416.25
2019-03-25T07:26:00.407Z,478.13
2019-03-25T07:27:00.400Z,393.75
2019-03-25T07:28:00.384Z,393.75
2019-03-25T07:29:00.372Z,365.63
2019-03-25T07:30:00.379Z,376.88
2019-03-25T07:31:00.350Z,478.13
2019-03-25T07:32:00.339Z,579.38
2019-03-25T07:33:00.374Z,579.38
2019-03-25T07:34:00.316Z,495.00
2019-03-25T07:35:00.327Z,388.13
2019-03-25T07:36:00.296Z,438.75
2019-03-25T07:37:01.938Z,635.63
2019-03-25T07:38:00.292Z,950.63
2019-03-25T07:39:00.361Z,793.13
2019-03-25T07:40:00.337Z,450.00
2019-03-25T07:41:00.242Z,376.88
2019-03-25T07:42:00.284Z,281.25
2019-03-25T07:43:00.327Z,225.00
2019-03-25T07:44:00.265Z,191.25
2019-03-25T07:45:00.339Z,157.50
2019-03-25T07:46:00.242Z,140.63
2019-03-25T07:47:00.232Z,157.50
2019-03-25T07:48:00.172Z,275.63
2019-03-25T07:49:00.209Z,292.50
2019-03-25T07:50:00.320Z,264.38
2019-03-25T07:51:00.192Z,275.63
2019-03-25T07:52:00.181Z,286.88
2019-03-25T07:53:00.269Z,354.38
2019-03-25T07:54:01.807Z,326.25
2019-03-25T07:55:00.269Z,399.38
2019-03-25T07:56:00.086Z,433.13
2019-03-25T07:57:00.071Z,354.38
2019-03-25T07:58:00.087Z,461.25
2019-03-25T07:59:00.080Z,348.75
2019-03-25T08:00:00.040Z,196.88
2019-03-25T08:01:00.026Z,146.25
2019-03-25T08:02:00.035Z,157.50
2019-03-25T08:03:00.012Z,275.63
2019-03-25T08:04:00.034Z,354.38
2019-03-25T08:05:00.001Z,253.13
2019-03-25T08:05:59.968Z,236.25
2019-03-25T08:06:59.970Z,320.63
2019-03-25T08:07:59.956Z,343.13
2019-03-25T08:09:03.976Z,438.75
2019-03-25T08:09:59.947Z,382.50
2019-03-25T08:10:59.939Z,270.00
2019-03-25T08:11:59.916Z,213.75
2019-03-25T08:12:59.929Z,151.88
2019-03-25T08:13:59.874Z,101.25
2019-03-25T08:14:59.891Z,95.63
2019-03-25T08:15:59.853Z,101.25
2019-03-25T08:16:59.839Z,135.00
2019-03-25T08:17:59.829Z,219.38
2019-03-25T08:18:59.816Z,219.38
2019-03-25T08:19:59.805Z,196.88
2019-03-25T08:20:59.796Z,196.88
2019-03-25T08:21:59.789Z,219.38
2019-03-25T08:22:59.766Z,292.50
2019-03-25T08:23:59.754Z,405.00
2019-03-25T08:24:59.741Z,365.63
2019-03-25T08:25:59.729Z,360.00
2019-03-25T08:26:59.717Z,382.50
2019-03-25T08:28:00.583Z,618.75
2019-03-25T08:28:59.692Z,984.38
2019-03-25T08:29:59.680Z,1023.75
2019-03-25T08:30:59.668Z,843.75
2019-03-25T08:31:59.660Z,556.88
2019-03-25T08:32:59.646Z,849.38
2019-03-25T08:33:59.636Z,838.13
2019-03-25T08:34:59.627Z,804.38
2019-03-25T08:35:59.618Z,821.25
2019-03-25T08:36:59.608Z,804.38
2019-03-25T08:37:59.599Z,781.88
2019-03-25T08:38:59.592Z,798.75
2019-03-25T08:39:59.584Z,793.13
2019-03-25T08:40:59.577Z,804.38
2019-03-25T08:41:59.569Z,787.50
2019-03-25T08:42:59.562Z,798.75
2019-03-25T08:43:59.601Z,832.50
2019-03-25T08:44:59.550Z,821.25
2019-03-25T08:45:59.543Z,916.88
2019-03-25T08:46:59.537Z,2103.75
2019-03-25T08:47:59.532Z,2970.00
2019-03-25T08:48:59.525Z,2255.63
2019-03-25T08:49:59.520Z,2244.38
2019-03-25T08:50:59.519Z,2030.63
2019-03-25T08:51:59.510Z,1507.50
2019-03-25T08:52:59.507Z,1839.38
2019-03-25T08:53:59.499Z,2070.00
2019-03-25T08:54:59.495Z,1687.50
2019-03-25T08:55:59.490Z,2154.38
2019-03-25T08:56:59.492Z,579.38
2019-03-25T08:58:11.202Z,534.38
2019-03-25T08:58:59.475Z,815.63
2019-03-25T08:59:59.471Z,708.75
2019-03-25T09:00:59.462Z,601.88
2019-03-25T09:01:59.457Z,483.75
2019-03-25T09:02:59.454Z,365.63
2019-03-25T09:03:59.448Z,551.25
2019-03-25T09:04:59.435Z,579.38
2019-03-25T09:05:59.663Z,528.75
2019-03-25T09:06:59.420Z,888.75
2019-03-25T09:07:59.412Z,5833.13
2019-03-25T09:08:59.403Z,832.50
2019-03-25T09:09:59.396Z,776.25
2019-03-25T09:10:59.388Z,1006.88
2019-03-25T09:11:59.383Z,742.50
2019-03-25T09:12:59.373Z,399.38
2019-03-25T09:13:59.363Z,540.00
2019-03-25T09:14:59.356Z,663.75
2019-03-25T09:15:59.348Z,843.75
2019-03-25T09:17:00.607Z,1006.88
2019-03-25T09:17:59.330Z,641.25
2019-03-25T09:18:59.321Z,506.25
2019-03-25T09:19:59.315Z,680.63
2019-03-25T09:20:59.305Z,1170.00
2019-03-25T09:21:59.297Z,871.88
2019-03-25T09:22:59.289Z,680.63
2019-03-25T09:23:59.278Z,461.25
2019-03-25T09:24:59.268Z,523.13
2019-03-25T09:25:59.260Z,680.63
2019-03-25T09:26:59.253Z,585.00
2019-03-25T09:27:59.245Z,433.13
2019-03-25T09:28:59.236Z,388.13
2019-03-25T09:29:59.227Z,472.50
2019-03-25T09:30:59.215Z,579.38
2019-03-25T09:31:59.205Z,601.88
2019-03-25T09:32:59.197Z,562.50
2019-03-25T09:33:59.196Z,646.88
2019-03-25T09:34:59.177Z,697.50
2019-03-25T09:35:59.261Z,489.38
2019-03-25T09:36:59.159Z,286.88
2019-03-25T09:37:59.149Z,163.13
2019-03-25T09:38:59.139Z,118.13
2019-03-25T09:39:59.130Z,95.63
2019-03-25T09:40:59.119Z,101.25
2019-03-25T09:41:59.109Z,73.13
2019-03-25T09:42:59.099Z,73.13
2019-03-25T09:43:59.088Z,56.25
2019-03-25T09:44:59.077Z,90.00
2019-03-25T09:45:59.070Z,140.63
2019-03-25T09:46:59.057Z,157.50
2019-03-25T09:47:59.044Z,129.38
2019-03-25T09:48:59.032Z,118.13
2019-03-25T09:49:59.023Z,90.00
2019-03-25T09:50:59.009Z,106.88
2019-03-25T09:51:58.999Z,146.25
2019-03-25T09:52:58.985Z,275.63
2019-03-25T09:53:58.973Z,511.88
2019-03-25T09:54:58.962Z,669.38
2019-03-25T09:55:58.953Z,2098.13
2019-03-25T09:56:58.937Z,1935.00
2019-03-25T09:57:58.925Z,2160.00
2019-03-25T09:58:58.914Z,883.13
2019-03-25T09:59:58.903Z,2576.25
2019-03-25T10:00:58.892Z,2733.75
2019-03-25T10:01:58.881Z,3206.25
2019-03-25T10:02:58.873Z,3420.00
2019-03-25T10:03:58.863Z,2553.75
2019-03-25T10:04:58.854Z,2340.00
2019-03-25T10:05:58.847Z,1777.50
2019-03-25T10:06:58.839Z,2205.00
2019-03-25T10:07:58.832Z,2272.50
2019-03-25T10:08:58.825Z,2323.13
2019-03-25T10:09:58.874Z,2306.25
2019-03-25T10:10:58.814Z,2205.00
2019-03-25T10:11:58.809Z,2233.13
2019-03-25T10:12:58.805Z,2317.50
2019-03-25T10:13:58.798Z,2356.88
2019-03-25T10:14:58.794Z,2154.38
2019-03-25T10:15:58.791Z,2283.75
2019-03-25T10:16:58.792Z,2373.75
2019-03-25T10:17:58.783Z,2480.63
2019-03-25T10:18:58.780Z,2497.50
2019-03-25T10:19:58.777Z,540.00
2019-03-25T10:20:58.776Z,2340.00
2019-03-25T10:21:58.770Z,2401.88
2019-03-25T10:22:58.769Z,2379.38
2019-03-25T10:23:58.807Z,2289.38
2019-03-25T10:24:58.760Z,2930.63
2019-03-25T10:25:58.757Z,1355.63
2019-03-25T10:26:58.755Z,1153.13
2019-03-25T10:27:58.769Z,748.13
2019-03-25T10:28:58.749Z,579.38
2019-03-25T10:29:58.747Z,528.75
2019-03-25T10:30:58.743Z,455.63
2019-03-25T10:31:58.740Z,348.75
2019-03-25T10:32:58.733Z,303.75
2019-03-25T10:33:58.731Z,320.63
2019-03-25T10:34:58.722Z,450.00
2019-03-25T10:35:58.716Z,438.75
2019-03-25T10:36:58.709Z,511.88
2019-03-25T10:37:58.702Z,1153.13
2019-03-25T10:38:58.695Z,2677.50
2019-03-25T10:39:58.690Z,798.75
2019-03-25T10:40:58.681Z,787.50
2019-03-25T10:41:58.674Z,776.25
2019-03-25T10:42:58.667Z,1288.13
2019-03-25T10:43:58.659Z,2925.00
2019-03-25T10:44:58.651Z,2193.75
2019-03-25T10:45:58.645Z,1046.25
2019-03-25T10:46:58.639Z,871.88
2019-03-25T10:47:58.635Z,646.88
2019-03-25T10:48:58.630Z,843.75
2019-03-25T10:49:58.622Z,1029.38
2019-03-25T10:50:58.665Z,2632.50
2019-03-25T10:51:58.612Z,2446.88
2019-03-25T10:52:58.603Z,2289.38
2019-03-25T10:53:58.597Z,2615.63
2019-03-25T10:55:58.589Z,2970.00
2019-03-25T10:56:58.584Z,978.75
2019-03-25T10:57:58.578Z,765.00
2019-03-25T10:58:58.670Z,495.00
2019-03-25T10:59:58.579Z,202.50
2019-03-25T11:00:58.564Z,196.88
2019-03-25T11:01:58.558Z,376.88
2019-03-25T11:02:58.552Z,562.50
2019-03-25T11:03:58.546Z,995.63
2019-03-25T11:04:58.541Z,1293.75
2019-03-25T11:05:58.534Z,1051.88
2019-03-25T11:06:58.526Z,1946.25
2019-03-25T11:07:58.523Z,590.63
2019-03-25T11:08:58.512Z,2334.38
2019-03-25T11:09:58.531Z,2435.63
2019-03-25T11:10:58.500Z,2385.00
2019-03-25T11:11:58.495Z,2272.50
2019-03-25T11:12:58.489Z,2328.75
2019-03-25T11:13:58.484Z,2345.63
2019-03-25T11:14:58.480Z,2368.13
2019-03-25T11:15:58.476Z,2632.50
2019-03-25T11:16:58.472Z,2761.88
2019-03-25T11:17:58.469Z,1012.50
2019-03-25T11:18:58.465Z,2475.00
2019-03-25T11:19:58.463Z,995.63
2019-03-25T11:20:58.460Z,1468.13
2019-03-25T11:21:58.455Z,1755.00
2019-03-25T11:22:58.452Z,894.38
2019-03-25T11:23:58.449Z,663.75
2019-03-25T11:24:58.446Z,815.63
2019-03-25T11:25:58.443Z,1035.00
2019-03-25T11:26:58.437Z,995.63
2019-03-25T11:27:58.433Z,2148.75
2019-03-25T11:29:04.393Z,658.13
2019-03-25T11:29:58.421Z,540.00
2019-03-25T11:30:58.417Z,500.63
2019-03-25T11:31:58.413Z,382.50
2019-03-25T11:32:58.408Z,309.38
2019-03-25T11:33:58.398Z,315.00
2019-03-25T11:34:58.390Z,331.88
2019-03-25T11:35:58.384Z,360.00
2019-03-25T11:36:58.375Z,410.63
2019-03-25T11:37:58.378Z,399.38
2019-03-25T11:38:58.374Z,658.13
2019-03-25T11:39:58.351Z,1226.25
2019-03-25T11:40:58.342Z,517.50
2019-03-25T11:41:58.333Z,444.38
2019-03-25T11:42:58.326Z,2345.63
2019-03-25T11:43:58.319Z,1181.25
2019-03-25T11:44:58.307Z,2328.75
2019-03-25T11:45:58.299Z,2514.38
2019-03-25T11:46:58.291Z,1912.50
2019-03-25T11:47:58.284Z,1271.25
2019-03-25T11:48:58.303Z,1591.88
2019-03-25T11:49:58.269Z,2418.75
2019-03-25T11:50:58.262Z,2683.13
2019-03-25T11:51:58.259Z,1901.25
2019-03-25T11:52:58.249Z,2885.63
2019-03-25T11:53:58.734Z,1676.25
2019-03-25T11:54:58.240Z,2086.88
2019-03-25T11:55:58.234Z,956.25
2019-03-25T11:56:58.228Z,922.50
2019-03-25T11:57:58.223Z,793.13
2019-03-25T11:58:58.218Z,933.75
2019-03-25T11:59:58.213Z,776.25
2019-03-25T12:00:58.211Z,815.63
2019-03-25T12:01:58.200Z,933.75
2019-03-25T12:02:58.194Z,855.00
2019-03-25T12:03:58.187Z,1361.25
2019-03-25T12:04:58.180Z,691.88
2019-03-25T12:05:58.194Z,798.75
2019-03-25T12:06:58.167Z,815.63
2019-03-25T12:07:58.159Z,945.00
2019-03-25T12:08:58.152Z,1260.00
2019-03-25T12:09:58.145Z,2677.50
2019-03-25T12:10:58.137Z,894.38
2019-03-25T12:11:58.129Z,860.63
2019-03-25T12:12:58.121Z,894.38
2019-03-25T12:13:58.114Z,1479.38
2019-03-25T12:14:58.106Z,770.63
2019-03-25T12:15:58.103Z,551.25
2019-03-25T12:16:58.090Z,382.50
2019-03-25T12:17:58.084Z,388.13
2019-03-25T12:18:58.075Z,450.00
2019-03-25T12:19:58.067Z,630.00
2019-03-25T12:20:58.059Z,748.13
2019-03-25T12:21:58.058Z,1428.75
2019-03-25T12:22:58.042Z,646.88
2019-03-25T12:23:58.036Z,697.50
2019-03-25T12:24:58.025Z,1035.00
2019-03-25T12:25:58.017Z,781.88
2019-03-25T12:26:58.010Z,680.63
2019-03-25T12:27:58.002Z,686.25
2019-03-25T12:28:58.018Z,821.25
2019-03-25T12:29:57.984Z,2255.63
2019-03-25T12:30:57.975Z,517.50
2019-03-25T12:31:57.968Z,753.75
2019-03-25T12:33:03.992Z,2278.13
2019-03-25T12:33:57.950Z,1085.63
2019-03-25T12:34:57.944Z,2334.38
2019-03-25T12:35:57.935Z,1873.13
2019-03-25T12:36:57.928Z,2345.63
2019-03-25T12:37:57.921Z,2340.00
2019-03-25T12:38:57.914Z,1074.38
2019-03-25T12:39:57.908Z,1175.63
2019-03-25T12:40:57.900Z,2638.13
2019-03-25T12:41:57.894Z,1215.00
2019-03-25T12:42:57.887Z,1018.13
2019-03-25T12:43:57.881Z,1901.25
2019-03-25T12:44:57.874Z,1006.88
2019-03-25T12:45:57.869Z,798.75
2019-03-25T12:46:57.864Z,1771.88
2019-03-25T12:47:57.863Z,2165.63